createdAt,value
2023-01-17T00:00:33.025Z,100.00
2023-01-17T00:02:31.831Z,100.00
2023-01-17T00:04:47.711Z,100.00
2023-01-17T00:07:03.544Z,100.00
2023-01-17T00:09:20.552Z,100.00
2023-01-17T00:11:18.821Z,100.00
2023-01-17T00:13:17.615Z,100.00
2023-01-17T00:15:16.969Z,100.00
2023-01-17T00:17:15.414Z,100.00
2023-01-17T00:19:31.473Z,100.00
2023-01-17T00:21:46.995Z,100.00
2023-01-17T00:24:03.430Z,100.00
2023-01-17T00:26:06.759Z,100.00
2023-01-17T00:28:04.640Z,100.00
2023-01-17T00:30:01.824Z,100.00
2023-01-17T00:31:59.011Z,100.00
2023-01-17T00:33:55.915Z,100.00
2023-01-17T00:35:53.851Z,100.00
2023-01-17T00:38:01.336Z,100.00
2023-01-17T00:39:58.449Z,100.00
2023-01-17T00:41:56.780Z,100.00
2023-01-17T00:44:12.223Z,100.00
2023-01-17T00:46:28.404Z,100.00
2023-01-17T00:48:43.873Z,100.00
2023-01-17T00:50:59.225Z,100.00
2023-01-17T00:53:14.897Z,100.00
2023-01-17T00:55:30.662Z,100.00
2023-01-17T00:57:48.154Z,100.00
2023-01-17T01:00:04.111Z,100.00
2023-01-17T01:02:19.635Z,100.00
2023-01-17T01:04:35.633Z,100.00
2023-01-17T01:06:51.015Z,100.00
2023-01-17T01:09:07.120Z,100.00
2023-01-17T01:11:27.675Z,100.00
2023-01-17T01:13:46.139Z,100.00
2023-01-17T01:16:01.688Z,100.00
2023-01-17T01:18:17.471Z,100.00
2023-01-17T01:20:33.420Z,100.00
2023-01-17T01:22:49.417Z,100.00
2023-01-17T01:25:04.872Z,100.00
2023-01-17T01:27:20.830Z,100.00
2023-01-17T01:29:38.008Z,100.00
2023-01-17T01:31:53.987Z,100.00
2023-01-17T01:33:53.104Z,100.00
2023-01-17T01:35:53.802Z,100.00
2023-01-17T01:37:52.444Z,100.00
2023-01-17T01:39:50.609Z,100.00
2023-01-17T01:41:48.708Z,100.00
2023-01-17T01:43:49.248Z,100.00
2023-01-17T01:45:53.770Z,100.00
2023-01-17T01:47:55.111Z,100.00
2023-01-17T01:49:53.377Z,100.00
2023-01-17T01:51:55.832Z,100.00
2023-01-17T01:54:03.616Z,100.00
2023-01-17T01:56:02.583Z,100.00
2023-01-17T01:58:05.459Z,100.00
2023-01-17T02:00:08.470Z,100.00
2023-01-17T02:02:11.273Z,100.00
2023-01-17T02:04:11.133Z,100.00
2023-01-17T02:06:20.980Z,100.00
2023-01-17T02:08:24.072Z,100.00
2023-01-17T02:10:22.689Z,100.00
2023-01-17T02:12:22.478Z,100.00
2023-01-17T02:14:31.945Z,100.00
2023-01-17T02:16:52.770Z,100.00
2023-01-17T02:19:10.226Z,100.00
2023-01-17T02:21:22.767Z,100.00
2023-01-17T02:23:47.634Z,100.00
2023-01-17T02:26:19.076Z,100.00
2023-01-17T02:28:39.536Z,100.00
2023-01-17T02:30:44.448Z,100.00
2023-01-17T02:32:57.504Z,100.00
2023-01-17T02:35:12.007Z,100.00
2023-01-17T02:37:21.574Z,100.00
2023-01-17T02:39:32.525Z,100.00
2023-01-17T02:41:39.449Z,100.00
2023-01-17T02:43:44.123Z,100.00
2023-01-17T02:45:46.419Z,100.00
2023-01-17T02:47:45.892Z,100.00
2023-01-17T02:50:12.368Z,100.00
2023-01-17T02:52:28.300Z,100.00
2023-01-17T02:54:44.156Z,100.00
2023-01-17T02:56:53.353Z,100.00
2023-01-17T02:59:06.086Z,100.00
2023-01-17T03:01:20.724Z,100.00
2023-01-17T03:03:25.606Z,100.00
2023-01-17T03:05:30.519Z,100.00
2023-01-17T03:07:31.387Z,100.00
2023-01-17T03:09:31.360Z,100.00
2023-01-17T03:11:29.590Z,100.00
2023-01-17T03:13:28.009Z,100.00
2023-01-17T03:15:26.234Z,100.00
2023-01-17T03:17:29.862Z,100.00
2023-01-17T03:19:28.069Z,100.00
2023-01-17T03:21:26.315Z,100.00
2023-01-17T03:23:24.459Z,100.00
2023-01-17T03:25:22.612Z,100.00
2023-01-17T03:27:20.797Z,100.00
2023-01-17T03:29:19.438Z,100.00
2023-01-17T03:31:19.855Z,100.00
2023-01-17T03:33:19.482Z,100.00
2023-01-17T03:35:18.122Z,100.00
2023-01-17T03:37:16.323Z,100.00
2023-01-17T03:39:14.556Z,100.00
2023-01-17T03:41:12.960Z,100.00
2023-01-17T03:43:11.852Z,100.00
2023-01-17T03:45:10.993Z,100.00
2023-01-17T03:47:12.238Z,100.00
2023-01-17T03:49:12.025Z,100.00
2023-01-17T03:51:10.211Z,100.00
2023-01-17T03:53:08.462Z,100.00
2023-01-17T03:55:08.307Z,100.00
2023-01-17T03:57:06.539Z,100.00
2023-01-17T03:59:04.701Z,100.00
2023-01-17T04:01:03.123Z,100.00
2023-01-17T04:03:01.442Z,100.00
2023-01-17T04:05:01.320Z,100.00
2023-01-17T04:06:59.555Z,100.00
2023-01-17T04:08:57.787Z,100.00
2023-01-17T04:10:56.099Z,100.00
2023-01-17T04:12:54.230Z,100.00
2023-01-17T04:14:52.545Z,100.00
2023-01-17T04:16:50.939Z,100.00
2023-01-17T04:18:49.231Z,100.00
2023-01-17T04:20:49.150Z,100.00
2023-01-17T04:22:47.249Z,100.00
2023-01-17T04:24:45.539Z,100.00
2023-01-17T04:26:43.852Z,100.00
2023-01-17T04:28:42.132Z,100.00
2023-01-17T04:30:40.597Z,100.00
2023-01-17T04:32:38.787Z,100.00
2023-01-17T04:34:37.001Z,100.00
2023-01-17T04:36:36.584Z,100.00
2023-01-17T04:38:35.198Z,100.00
2023-01-17T04:40:33.408Z,100.00
2023-01-17T04:42:31.986Z,100.00
2023-01-17T04:44:30.205Z,100.00
2023-01-17T04:46:28.458Z,100.00
2023-01-17T04:48:27.553Z,100.00
2023-01-17T04:50:25.775Z,100.00
2023-01-17T04:52:25.436Z,100.00
2023-01-17T04:54:23.518Z,100.00
2023-01-17T04:56:21.904Z,100.00
2023-01-17T04:58:20.089Z,100.00
2023-01-17T05:00:19.421Z,100.00
2023-01-17T05:02:17.548Z,100.00
2023-01-17T05:04:15.675Z,100.00
2023-01-17T05:06:13.900Z,100.00
2023-01-17T05:08:13.461Z,100.00
2023-01-17T05:10:12.360Z,100.00
2023-01-17T05:12:10.926Z,100.00
2023-01-17T05:14:09.251Z,100.00
2023-01-17T05:16:07.925Z,100.00
2023-01-17T05:18:08.827Z,100.00
2023-01-17T05:20:08.938Z,100.00
2023-01-17T05:22:15.263Z,100.00
2023-01-17T05:24:15.042Z,100.00
2023-01-17T05:26:13.278Z,100.00
2023-01-17T05:28:13.106Z,100.00
2023-01-17T05:30:12.856Z,100.00
2023-01-17T05:32:11.088Z,100.00
2023-01-17T05:34:09.411Z,100.00
2023-01-17T05:36:08.302Z,100.00
2023-01-17T05:38:06.736Z,100.00
2023-01-17T05:40:09.679Z,100.00
2023-01-17T05:42:07.830Z,100.00
2023-01-17T05:44:06.525Z,100.00
2023-01-17T05:46:04.786Z,100.00
2023-01-17T05:48:03.628Z,100.00
2023-01-17T05:50:01.930Z,100.00
2023-01-17T05:52:00.218Z,100.00
2023-01-17T05:53:58.405Z,100.00
2023-01-17T05:55:58.032Z,100.00
2023-01-17T05:57:56.565Z,100.00
2023-01-17T05:59:54.920Z,100.00
2023-01-17T06:01:54.430Z,100.00
2023-01-17T06:03:52.622Z,100.00
2023-01-17T06:05:51.167Z,100.00
2023-01-17T06:07:50.301Z,100.00
2023-01-17T06:09:48.452Z,100.00
2023-01-17T06:11:48.079Z,100.00
2023-01-17T06:13:46.266Z,99.66
2023-01-17T06:15:44.737Z,97.56
2023-01-17T06:17:43.121Z,95.26
2023-01-17T06:19:41.365Z,92.88
2023-01-17T06:21:39.837Z,89.50
2023-01-17T06:23:38.034Z,85.31
2023-01-17T06:25:38.541Z,85.10
2023-01-17T06:27:38.091Z,86.23
2023-01-17T06:29:36.308Z,87.69
2023-01-17T06:31:34.680Z,90.59
2023-01-17T06:33:33.006Z,90.97
2023-01-17T06:35:31.179Z,92.35
2023-01-17T06:37:29.463Z,94.49
2023-01-17T06:39:27.768Z,95.01
2023-01-17T06:41:26.749Z,95.18
2023-01-17T06:43:26.574Z,96.01
2023-01-17T06:45:24.659Z,96.21
2023-01-17T06:47:22.905Z,96.17
2023-01-17T06:49:21.134Z,95.90
2023-01-17T06:51:19.294Z,96.12
2023-01-17T06:53:17.500Z,96.12
2023-01-17T06:55:15.634Z,96.19
2023-01-17T06:57:13.925Z,95.86
2023-01-17T06:59:13.448Z,96.94
2023-01-17T07:01:14.182Z,97.58
2023-01-17T07:03:20.395Z,98.32
2023-01-17T07:05:18.749Z,98.25
2023-01-17T07:07:17.116Z,98.12
2023-01-17T07:09:16.050Z,97.08
2023-01-17T07:11:14.586Z,96.32
2023-01-17T07:13:12.934Z,96.17
2023-01-17T07:15:13.873Z,96.28
2023-01-17T07:17:12.113Z,95.93
2023-01-17T07:19:10.434Z,93.29
2023-01-17T07:21:14.398Z,93.08
2023-01-17T07:23:12.612Z,93.42
2023-01-17T07:25:11.227Z,94.08
2023-01-17T07:27:09.650Z,93.17
2023-01-17T07:29:07.990Z,92.36
2023-01-17T07:31:09.113Z,92.31
2023-01-17T07:33:07.385Z,91.81
2023-01-17T07:35:06.470Z,91.08
2023-01-17T07:37:05.268Z,89.97
2023-01-17T07:39:05.466Z,88.70
2023-01-17T07:41:04.808Z,88.07
2023-01-17T07:43:03.467Z,88.07
2023-01-17T07:45:02.813Z,86.48
2023-01-17T07:47:02.568Z,86.74
2023-01-17T07:49:00.923Z,85.14
2023-01-17T07:50:59.766Z,84.65
2023-01-17T07:52:58.039Z,83.49
2023-01-17T07:54:56.130Z,81.88
2023-01-17T07:56:54.338Z,80.63
2023-01-17T07:58:52.571Z,80.79
2023-01-17T08:00:50.889Z,80.69
2023-01-17T08:02:50.863Z,80.53
2023-01-17T08:04:50.096Z,80.51
2023-01-17T08:06:50.808Z,80.07
2023-01-17T08:08:49.229Z,79.78
2023-01-17T08:10:47.589Z,80.11
2023-01-17T08:12:46.866Z,80.21
2023-01-17T08:14:45.449Z,80.63
2023-01-17T08:16:43.831Z,80.13
2023-01-17T08:18:43.556Z,77.99
2023-01-17T08:20:42.132Z,77.45
2023-01-17T08:22:40.401Z,76.88
2023-01-17T08:24:38.638Z,76.80
2023-01-17T08:26:36.773Z,77.17
2023-01-17T08:28:35.072Z,75.80
2023-01-17T08:30:33.653Z,74.12
2023-01-17T08:32:31.792Z,72.14
2023-01-17T08:34:34.233Z,70.14
2023-01-17T08:36:32.525Z,68.77
2023-01-17T08:38:30.779Z,64.05
2023-01-17T08:40:29.493Z,60.88
2023-01-17T08:42:28.045Z,58.63
2023-01-17T08:44:26.414Z,56.42
2023-01-17T08:46:25.098Z,52.77
2023-01-17T08:48:23.743Z,53.15
2023-01-17T08:50:25.053Z,52.70
2023-01-17T08:52:23.202Z,51.96
2023-01-17T08:54:23.015Z,51.78
2023-01-17T08:56:21.265Z,52.54
2023-01-17T08:58:19.523Z,52.10
2023-01-17T09:00:19.017Z,53.53
2023-01-17T09:02:18.498Z,54.29
2023-01-17T09:04:17.217Z,53.73
2023-01-17T09:06:18.279Z,53.68
2023-01-17T09:08:16.645Z,53.12
2023-01-17T09:10:15.283Z,52.39
2023-01-17T09:12:14.058Z,51.91
2023-01-17T09:14:13.602Z,51.53
2023-01-17T09:16:12.007Z,49.75
2023-01-17T09:18:10.371Z,48.67
2023-01-17T09:20:10.047Z,48.43
2023-01-17T09:22:10.202Z,48.39
2023-01-17T09:24:08.734Z,48.12
2023-01-17T09:26:07.725Z,47.36
2023-01-17T09:28:06.363Z,46.50
2023-01-17T09:30:05.606Z,46.56
2023-01-17T09:32:03.862Z,45.52
2023-01-17T09:34:02.373Z,45.71
2023-01-17T09:36:05.711Z,45.12
2023-01-17T09:38:05.815Z,43.69
2023-01-17T09:40:05.599Z,44.68
2023-01-17T09:42:18.683Z,44.89
2023-01-17T09:44:27.098Z,46.00
2023-01-17T09:46:30.138Z,47.54
2023-01-17T09:48:36.521Z,48.36
2023-01-17T09:50:41.580Z,49.41
2023-01-17T09:52:40.079Z,51.17
2023-01-17T09:54:42.369Z,51.68
2023-01-17T09:56:49.244Z,51.93
2023-01-17T09:58:56.886Z,53.02
2023-01-17T10:01:03.594Z,52.90
2023-01-17T10:03:30.894Z,53.99
2023-01-17T10:05:50.725Z,53.92
2023-01-17T10:08:04.634Z,54.50
2023-01-17T10:10:22.161Z,53.99
2023-01-17T10:12:27.200Z,53.62
2023-01-17T10:14:40.036Z,52.81
2023-01-17T10:16:47.579Z,52.77
2023-01-17T10:19:15.839Z,53.81
2023-01-17T10:21:18.643Z,54.84
2023-01-17T10:23:43.369Z,55.02
2023-01-17T10:25:48.960Z,55.41
2023-01-17T10:27:52.597Z,56.08
2023-01-17T10:29:52.049Z,56.71
2023-01-17T10:31:57.001Z,56.59
2023-01-17T10:33:57.663Z,56.22
2023-01-17T10:35:59.041Z,56.36
2023-01-17T10:37:59.625Z,55.97
2023-01-17T10:40:04.022Z,56.17
2023-01-17T10:42:14.277Z,56.90
2023-01-17T10:44:19.880Z,57.57
2023-01-17T10:46:24.300Z,57.40
2023-01-17T10:48:36.149Z,57.37
2023-01-17T10:50:54.213Z,57.97
2023-01-17T10:52:59.779Z,58.77
2023-01-17T10:55:09.947Z,58.15
2023-01-17T10:57:16.711Z,58.26
2023-01-17T10:59:30.689Z,58.30
2023-01-17T11:01:29.289Z,58.44
2023-01-17T11:03:28.837Z,58.59
2023-01-17T11:05:29.370Z,58.38
2023-01-17T11:07:30.090Z,58.72
2023-01-17T11:09:41.310Z,58.73
2023-01-17T11:11:48.128Z,58.32
2023-01-17T11:13:50.487Z,58.20
2023-01-17T11:15:51.604Z,58.00
2023-01-17T11:17:54.198Z,58.55
2023-01-17T11:19:53.288Z,58.18
2023-01-17T11:21:59.342Z,57.64
2023-01-17T11:23:59.927Z,57.65
2023-01-17T11:26:02.929Z,57.94
2023-01-17T11:28:04.565Z,57.32
2023-01-17T11:30:17.424Z,56.32
2023-01-17T11:32:32.066Z,56.07
2023-01-17T11:34:32.369Z,55.92
2023-01-17T11:36:34.068Z,55.88
2023-01-17T11:38:33.281Z,55.66
2023-01-17T11:40:37.624Z,55.71
2023-01-17T11:42:38.499Z,56.63
2023-01-17T11:44:36.888Z,56.28
2023-01-17T11:46:36.894Z,55.63
2023-01-17T11:48:37.745Z,55.92
2023-01-17T11:50:38.939Z,56.28
2023-01-17T11:52:39.210Z,55.81
2023-01-17T11:54:40.781Z,55.44
2023-01-17T11:56:41.052Z,55.64
2023-01-17T11:58:43.385Z,55.60
2023-01-17T12:00:47.812Z,54.94
2023-01-17T12:03:21.440Z,54.69
2023-01-17T12:05:35.697Z,54.15
2023-01-17T12:07:42.538Z,53.40
2023-01-17T12:09:47.379Z,53.29
2023-01-17T12:12:13.628Z,54.06
2023-01-17T12:14:24.325Z,53.71
2023-01-17T12:16:34.256Z,52.82
2023-01-17T12:18:45.770Z,53.00
2023-01-17T12:20:55.111Z,53.36
2023-01-17T12:23:14.569Z,52.63
2023-01-17T12:25:28.918Z,52.46
2023-01-17T12:27:36.912Z,52.30
2023-01-17T12:29:45.168Z,53.31
2023-01-17T12:31:55.515Z,53.20
2023-01-17T12:33:59.739Z,53.71
2023-01-17T12:36:04.323Z,53.18
2023-01-17T12:38:08.040Z,52.83
2023-01-17T12:40:18.448Z,52.72
2023-01-17T12:42:22.186Z,52.92
2023-01-17T12:44:31.193Z,53.36
2023-01-17T12:46:38.775Z,53.89
2023-01-17T12:48:39.590Z,53.36
2023-01-17T12:50:42.899Z,53.40
2023-01-17T12:52:54.627Z,52.60
2023-01-17T12:54:59.087Z,52.64
2023-01-17T12:57:03.628Z,53.11
2023-01-17T12:59:23.385Z,52.91
2023-01-17T13:01:29.720Z,52.79
2023-01-17T13:03:36.921Z,52.93
2023-01-17T13:05:39.032Z,53.07
2023-01-17T13:07:46.771Z,52.94
2023-01-17T13:09:54.659Z,52.61
2023-01-17T13:11:59.015Z,52.19
2023-01-17T13:14:00.142Z,51.95
2023-01-17T13:16:03.944Z,51.81
2023-01-17T13:18:09.730Z,52.24
2023-01-17T13:20:18.031Z,52.37
2023-01-17T13:22:21.822Z,52.32
2023-01-17T13:24:27.478Z,53.00
2023-01-17T13:26:39.328Z,52.68
2023-01-17T13:28:50.342Z,52.27
2023-01-17T13:31:03.949Z,51.73
2023-01-17T13:33:43.292Z,51.83
2023-01-17T13:35:54.905Z,51.99
2023-01-17T13:38:22.932Z,52.09
2023-01-17T13:40:35.406Z,51.95
2023-01-17T13:42:49.720Z,51.69
2023-01-17T13:44:48.600Z,52.82
2023-01-17T13:46:58.216Z,53.11
2023-01-17T13:49:23.605Z,53.40
2023-01-17T13:52:03.580Z,53.88
2023-01-17T13:54:03.092Z,53.37
2023-01-17T13:56:12.447Z,53.88
2023-01-17T13:58:30.457Z,53.86
2023-01-17T14:00:56.510Z,54.51
2023-01-17T14:02:55.746Z,53.37
2023-01-17T14:05:15.291Z,52.90
2023-01-17T14:07:27.490Z,52.84
2023-01-17T14:09:42.328Z,53.26
2023-01-17T14:12:01.491Z,52.58
2023-01-17T14:14:38.232Z,52.05
2023-01-17T14:16:37.112Z,52.19
2023-01-17T14:18:41.282Z,52.23
2023-01-17T14:20:53.250Z,52.56
2023-01-17T14:22:58.994Z,52.92
2023-01-17T14:25:10.077Z,53.10
2023-01-17T14:27:20.811Z,53.84
2023-01-17T14:29:59.267Z,53.13
2023-01-17T14:32:06.193Z,52.84
2023-01-17T14:34:14.208Z,53.03
2023-01-17T14:36:22.335Z,53.12
2023-01-17T14:38:24.075Z,53.17
2023-01-17T14:40:26.569Z,53.24
2023-01-17T14:42:30.448Z,53.75
2023-01-17T14:44:33.417Z,53.40
2023-01-17T14:46:34.339Z,53.59
2023-01-17T14:48:33.563Z,53.45
2023-01-17T14:50:37.900Z,53.97
2023-01-17T14:52:36.612Z,54.43
2023-01-17T14:54:37.101Z,54.54
2023-01-17T14:56:35.768Z,55.39
2023-01-17T14:58:36.536Z,55.87
2023-01-17T15:00:41.062Z,57.48
2023-01-17T15:02:44.514Z,56.39
2023-01-17T15:04:44.277Z,56.29
2023-01-17T15:06:43.522Z,56.34
2023-01-17T15:08:42.227Z,56.25
2023-01-17T15:10:51.647Z,55.43
2023-01-17T15:12:52.592Z,55.20
2023-01-17T15:14:52.054Z,56.37
2023-01-17T15:16:52.177Z,55.94
2023-01-17T15:18:53.346Z,56.16
2023-01-17T15:21:05.889Z,56.09
2023-01-17T15:23:04.913Z,56.09
2023-01-17T15:25:07.678Z,56.37
2023-01-17T15:27:07.588Z,56.59
2023-01-17T15:29:08.640Z,57.40
2023-01-17T15:31:14.832Z,58.39
2023-01-17T15:33:20.960Z,58.36
2023-01-17T15:35:22.601Z,58.63
2023-01-17T15:37:30.139Z,58.69
2023-01-17T15:39:31.234Z,59.29
2023-01-17T15:41:33.739Z,60.36
2023-01-17T15:43:36.150Z,60.25
2023-01-17T15:45:36.187Z,61.77
2023-01-17T15:47:38.239Z,62.77
2023-01-17T15:49:36.755Z,62.74
2023-01-17T15:51:41.813Z,61.45
2023-01-17T15:53:42.891Z,61.69
2023-01-17T15:55:41.829Z,61.76
2023-01-17T15:57:41.332Z,61.01
2023-01-17T15:59:48.703Z,60.65
2023-01-17T16:01:55.120Z,60.72
2023-01-17T16:03:56.042Z,60.61
2023-01-17T16:05:57.870Z,60.64
2023-01-17T16:08:18.729Z,60.82
2023-01-17T16:10:19.308Z,60.58
2023-01-17T16:12:18.088Z,60.67
2023-01-17T16:14:19.215Z,61.57
2023-01-17T16:16:24.196Z,62.24
2023-01-17T16:18:28.181Z,62.15
2023-01-17T16:20:32.150Z,62.64
2023-01-17T16:22:30.711Z,62.85
2023-01-17T16:24:31.611Z,64.30
2023-01-17T16:26:30.554Z,65.82
2023-01-17T16:28:29.513Z,66.89
2023-01-17T16:30:29.383Z,67.71
2023-01-17T16:32:28.923Z,68.38
2023-01-17T16:34:28.399Z,69.10
2023-01-17T16:36:27.167Z,69.24
2023-01-17T16:38:25.875Z,69.59
2023-01-17T16:40:29.153Z,70.38
2023-01-17T16:42:28.627Z,70.53
2023-01-17T16:44:27.429Z,70.93
2023-01-17T16:46:26.868Z,71.48
2023-01-17T16:48:25.848Z,71.77
2023-01-17T16:50:26.676Z,72.38
2023-01-17T16:52:25.674Z,72.71
2023-01-17T16:54:24.535Z,73.10
2023-01-17T16:56:24.851Z,74.13
2023-01-17T16:58:24.199Z,73.71
2023-01-17T17:00:24.124Z,74.13
2023-01-17T17:02:23.283Z,74.47
2023-01-17T17:04:22.610Z,74.84
2023-01-17T17:06:21.662Z,75.11
2023-01-17T17:08:20.493Z,74.84
2023-01-17T17:10:21.015Z,74.68
2023-01-17T17:12:21.254Z,74.10
2023-01-17T17:14:20.150Z,74.03
2023-01-17T17:16:20.737Z,73.55
2023-01-17T17:18:19.802Z,72.89
2023-01-17T17:20:18.923Z,73.03
2023-01-17T17:22:17.572Z,73.21
2023-01-17T17:24:17.732Z,72.20
2023-01-17T17:26:16.643Z,72.15
2023-01-17T17:28:17.080Z,72.56
2023-01-17T17:30:16.678Z,72.87
2023-01-17T17:32:14.977Z,73.66
2023-01-17T17:34:15.019Z,73.92
2023-01-17T17:36:13.370Z,74.31
2023-01-17T17:38:11.861Z,74.11
2023-01-17T17:40:14.228Z,74.09
2023-01-17T17:42:12.598Z,74.51
2023-01-17T17:44:12.562Z,74.71
2023-01-17T17:46:11.393Z,74.89
2023-01-17T17:48:09.476Z,75.45
2023-01-17T17:50:10.246Z,75.88
2023-01-17T17:52:09.229Z,76.34
2023-01-17T17:54:09.016Z,76.72
2023-01-17T17:56:07.941Z,76.81
2023-01-17T17:58:06.191Z,77.00
2023-01-17T18:00:10.147Z,76.96
2023-01-17T18:02:11.048Z,77.81
2023-01-17T18:04:10.277Z,78.25
2023-01-17T18:06:11.625Z,78.16
2023-01-17T18:08:11.840Z,79.16
2023-01-17T18:10:13.321Z,79.71
2023-01-17T18:12:11.546Z,79.77
2023-01-17T18:14:12.516Z,80.11
2023-01-17T18:16:15.523Z,80.17
2023-01-17T18:18:13.931Z,80.99
2023-01-17T18:20:12.542Z,81.03
2023-01-17T18:22:11.685Z,81.55
2023-01-17T18:24:12.010Z,81.90
2023-01-17T18:26:18.180Z,82.06
2023-01-17T18:28:16.701Z,81.82
2023-01-17T18:30:15.411Z,82.33
2023-01-17T18:32:14.931Z,82.88
2023-01-17T18:34:15.941Z,83.23
2023-01-17T18:36:14.705Z,83.50
2023-01-17T18:38:13.295Z,83.68
2023-01-17T18:40:13.451Z,84.13
2023-01-17T18:42:12.602Z,84.38
2023-01-17T18:44:11.582Z,84.00
2023-01-17T18:46:11.327Z,84.02
2023-01-17T18:48:12.659Z,84.10
2023-01-17T18:50:11.880Z,83.98
2023-01-17T18:52:10.485Z,84.35
2023-01-17T18:54:09.031Z,84.53
2023-01-17T18:56:09.626Z,83.99
2023-01-17T18:58:09.334Z,84.33
2023-01-17T19:00:11.436Z,84.41
2023-01-17T19:02:10.909Z,84.63
2023-01-17T19:04:11.838Z,83.96
2023-01-17T19:06:12.874Z,84.07
2023-01-17T19:08:11.379Z,84.10
2023-01-17T19:10:13.156Z,83.80
2023-01-17T19:12:11.579Z,83.71
2023-01-17T19:14:11.890Z,82.79
2023-01-17T19:16:14.480Z,83.74
2023-01-17T19:18:13.002Z,83.60
2023-01-17T19:20:17.202Z,83.85
2023-01-17T19:22:15.543Z,82.94
2023-01-17T19:24:14.491Z,82.43
2023-01-17T19:26:16.619Z,82.22
2023-01-17T19:28:15.004Z,82.13
2023-01-17T19:30:14.127Z,82.05
2023-01-17T19:32:12.541Z,82.09
2023-01-17T19:34:11.156Z,81.99
2023-01-17T19:36:16.941Z,81.58
2023-01-17T19:38:15.642Z,81.81
2023-01-17T19:40:14.596Z,81.07
2023-01-17T19:42:15.681Z,78.91
2023-01-17T19:44:15.584Z,77.97
2023-01-17T19:46:13.781Z,77.63
2023-01-17T19:48:14.545Z,76.55
2023-01-17T19:50:14.933Z,74.41
2023-01-17T19:52:14.788Z,72.78
2023-01-17T19:54:15.174Z,67.85
2023-01-17T19:56:15.658Z,66.41
2023-01-17T19:58:14.492Z,65.15
2023-01-17T20:00:14.911Z,65.93
2023-01-17T20:02:15.184Z,66.35
2023-01-17T20:04:14.255Z,67.24
2023-01-17T20:06:13.956Z,66.39
2023-01-17T20:08:14.378Z,66.84
2023-01-17T20:10:12.881Z,66.94
2023-01-17T20:12:12.335Z,66.99
2023-01-17T20:14:14.780Z,67.87
2023-01-17T20:16:15.484Z,68.34
2023-01-17T20:18:14.045Z,68.52
2023-01-17T20:20:13.515Z,68.42
2023-01-17T20:22:11.722Z,68.30
2023-01-17T20:24:13.709Z,69.19
2023-01-17T20:26:12.699Z,67.64
2023-01-17T20:28:10.966Z,65.54
2023-01-17T20:30:20.284Z,64.16
2023-01-17T20:32:18.718Z,62.31
2023-01-17T20:34:19.732Z,62.39
2023-01-17T20:36:19.555Z,62.70
2023-01-17T20:38:17.987Z,62.92
2023-01-17T20:40:18.471Z,62.59
2023-01-17T20:42:16.709Z,61.18
2023-01-17T20:44:16.080Z,60.36
2023-01-17T20:46:14.934Z,60.14
2023-01-17T20:48:13.391Z,59.24
2023-01-17T20:50:12.058Z,58.99
2023-01-17T20:52:10.834Z,58.49
2023-01-17T20:54:13.124Z,58.15
2023-01-17T20:56:15.015Z,58.05
2023-01-17T20:58:13.378Z,58.52
2023-01-17T21:00:14.612Z,58.11
2023-01-17T21:02:13.241Z,58.57
2023-01-17T21:04:13.055Z,57.74
2023-01-17T21:06:13.736Z,57.58
2023-01-17T21:08:17.781Z,57.98
2023-01-17T21:10:17.716Z,58.18
2023-01-17T21:12:17.353Z,58.33
2023-01-17T21:14:16.050Z,59.05
2023-01-17T21:16:16.418Z,58.47
2023-01-17T21:18:14.825Z,58.29
2023-01-17T21:20:15.034Z,58.64
2023-01-17T21:22:16.708Z,58.95
2023-01-17T21:24:18.930Z,58.97
2023-01-17T21:26:18.671Z,59.23
2023-01-17T21:28:18.696Z,59.40
2023-01-17T21:30:17.305Z,58.84
2023-01-17T21:32:17.396Z,58.92
2023-01-17T21:34:15.702Z,58.64
2023-01-17T21:36:14.796Z,58.14
2023-01-17T21:38:13.943Z,57.67
2023-01-17T21:40:14.780Z,57.82
2023-01-17T21:42:12.983Z,58.42
2023-01-17T21:44:15.845Z,58.99
2023-01-17T21:46:14.260Z,59.22
2023-01-17T21:48:13.409Z,59.63
2023-01-17T21:50:22.194Z,59.51
2023-01-17T21:52:26.695Z,59.95
2023-01-17T21:54:40.705Z,59.96
2023-01-17T21:56:56.689Z,59.16
2023-01-17T21:58:56.982Z,58.69
2023-01-17T22:01:07.807Z,59.24
2023-01-17T22:03:06.094Z,59.74
2023-01-17T22:05:04.589Z,59.77
2023-01-17T22:07:03.274Z,59.83
2023-01-17T22:09:01.650Z,59.96
2023-01-17T22:11:03.991Z,60.38
2023-01-17T22:13:02.435Z,60.52
2023-01-17T22:15:00.618Z,60.50
2023-01-17T22:17:00.282Z,60.39
2023-01-17T22:18:59.176Z,60.60
2023-01-17T22:20:57.727Z,60.56
2023-01-17T22:22:56.277Z,60.18
2023-01-17T22:24:54.662Z,60.04
2023-01-17T22:26:52.883Z,59.80
2023-01-17T22:28:51.194Z,59.86
2023-01-17T22:30:49.556Z,60.35
2023-01-17T22:32:49.397Z,59.92
2023-01-17T22:34:47.454Z,59.27
2023-01-17T22:36:46.135Z,58.54
2023-01-17T22:38:44.806Z,57.70
2023-01-17T22:40:43.041Z,57.24
2023-01-17T22:42:41.281Z,56.92
2023-01-17T22:44:39.497Z,57.09
2023-01-17T22:46:38.616Z,57.38
2023-01-17T22:48:40.401Z,57.66
2023-01-17T22:50:38.687Z,57.52
2023-01-17T22:52:36.963Z,57.76
2023-01-17T22:54:35.207Z,57.94
2023-01-17T22:56:34.742Z,58.31
2023-01-17T22:58:37.239Z,58.70
2023-01-17T23:00:35.829Z,58.77
2023-01-17T23:02:34.023Z,59.02
2023-01-17T23:04:33.558Z,59.54
2023-01-17T23:06:33.623Z,59.61
2023-01-17T23:08:32.147Z,59.49
2023-01-17T23:10:47.870Z,58.89
2023-01-17T23:12:47.432Z,58.99
2023-01-17T23:15:03.141Z,59.29
2023-01-17T23:17:20.608Z,59.16
2023-01-17T23:19:24.742Z,59.33
2023-01-17T23:21:44.498Z,59.27
2023-01-17T23:23:42.666Z,59.74
2023-01-17T23:25:40.750Z,59.64
2023-01-17T23:27:58.224Z,59.63
2023-01-17T23:29:55.474Z,59.49
2023-01-17T23:31:53.661Z,59.07
2023-01-17T23:33:51.915Z,59.34
2023-01-17T23:35:50.160Z,60.10
2023-01-17T23:38:07.464Z,60.57
2023-01-17T23:40:06.672Z,61.11
2023-01-17T23:42:22.682Z,60.95
2023-01-17T23:44:20.907Z,60.45
2023-01-17T23:46:19.096Z,59.97
2023-01-17T23:48:17.525Z,59.44
2023-01-17T23:50:15.917Z,59.61
2023-01-17T23:52:14.246Z,59.23
2023-01-17T23:54:13.997Z,59.09
2023-01-17T23:56:15.709Z,59.24
2023-01-17T23:58:14.091Z,59.93
